Aérodrome :
LOGIN :

S'inscrire | Disclaimer

   EN    FR    IT 

 










Légende :    VFR   VFR Marginal   IFR   IFR Intensif   IFR Très Intensif
Visi : 
Plafond : 
>= 8 km
>= 3000ft
5 à 8 km
1000 à 3000 ft
1500m à 5 km
500 à 1000 ft
800 à 1500m
200 à 500 ft
< 800m
< 200 ft
Symboles :   Orages  Brouillard  Fortes neiges  Fortes précipitations  Vent > 20 kt
SIGMETs :   Divers  Orages  Givrage  Turbulence  Onde Orograph.  Cendres Volcan.







- Altitude de l'aérodrome : 459 ft
- Code IATA : CER
- Voir les cartes d'approche


LFRC - Cherbourg / Maupertus

DERNIER METAR :
  • 201530Z AUTO 08011KT 7000 NSC 13/09 Q1019 TEMPO BKN010

METARs EXPIRÉS :
  • 201500Z AUTO 07011KT 7000 NSC 13/09 Q1020 TEMPO BKN010
  • 201430Z AUTO 07010KT 040V110 7000 NSC 13/09 Q1020 TEMPO BKN010
  • 201400Z AUTO 06010KT 030V090 7000 NSC 14/09 Q1020 TEMPO BKN007
  • 201330Z AUTO 07009KT 030V100 8000 FEW012 14/09 Q1021 TEMPO BKN007
  • 201300Z AUTO 06010KT CAVOK 14/10 Q1021 TEMPO BKN007

TAF TAF LFRC
Valide du 20 à 15h jusqu'au 21 à 00h UTC


201400Z 2015/2024 06010KT 7000 NSC
PROB40 2015/2017 5000 BR BKN010
BECMG 2019/2021 07005KT
TEMPO 2022/2024 5000 BR
Pas de NOTAMs connus pour ce terrain.



MET'MAP, la Météo Aéronautique d'un coup d'oeil ! - Copyright ORBIFLY Décembre 2007 - Disclaimer

ORBIFLY MET'MAP TEAM :

Programmation & Développement : Alexandra Zaïnal
Conception & Développement : Baudouin d'Aumeries
Co-Programmation & Développement : Marc-Olivier Méhu
Soutien technique & logistique : Manuel Goepfert

Contact : metmap@orbifly.com




SOURCES & CREDITS :

   NOAA